sensor_id;sensor_type;location;lat;lon;timestamp;pressure;altitude;pressure_sealevel;temperature;humidity
3122;BME280;1571;52.524;14.104;2023-06-22T00:00:39;101334.44;;;17.96;100.00
3122;BME280;1571;52.524;14.104;2023-06-22T00:03:09;101337.00;;;17.98;100.00
3122;BME280;1571;52.524;14.104;2023-06-22T00:05:38;101332.59;;;17.97;100.00
3122;BME280;1571;52.524;14.104;2023-06-22T00:08:06;101333.75;;;17.83;100.00
3122;BME280;1571;52.524;14.104;2023-06-22T00:10:34;101336.94;;;17.88;100.00
3122;BME280;1571;52.524;14.104;2023-06-22T00:13:03;101337.91;;;17.87;100.00
3122;BME280;1571;52.524;14.104;2023-06-22T00:15:32;101337.69;;;17.79;100.00
3122;BME280;1571;52.524;14.104;2023-06-22T00:18:02;101329.53;;;17.69;100.00
3122;BME280;1571;52.524;14.104;2023-06-22T00:20:31;101335.69;;;17.81;100.00
3122;BME280;1571;52.524;14.104;2023-06-22T00:23:00;101345.00;;;17.77;100.00
3122;BME280;1571;52.524;14.104;2023-06-22T00:25:28;101350.66;;;17.62;100.00
3122;BME280;1571;52.524;14.104;2023-06-22T00:27:56;101358.94;;;17.71;100.00
3122;BME280;1571;52.524;14.104;2023-06-22T00:30:25;101354.41;;;17.82;100.00
3122;BME280;1571;52.524;14.104;2023-06-22T00:32:57;101362.19;;;17.74;100.00
3122;BME280;1571;52.524;14.104;2023-06-22T00:35:27;101361.22;;;17.86;100.00
3122;BME280;1571;52.524;14.104;2023-06-22T00:37:56;101362.91;;;17.87;100.00
3122;BME280;1571;52.524;14.104;2023-06-22T00:40:29;101366.94;;;17.93;100.00
3122;BME280;1571;52.524;14.104;2023-06-22T00:42:57;101373.56;;;17.78;100.00
3122;BME280;1571;52.524;14.104;2023-06-22T00:45:26;101377.81;;;17.80;100.00
3122;BME280;1571;52.524;14.104;2023-06-22T00:47:56;101372.31;;;17.93;100.00
3122;BME280;1571;52.524;14.104;2023-06-22T00:50:28;101382.09;;;17.83;100.00
3122;BME280;1571;52.524;14.104;2023-06-22T00:53:04;101386.50;;;17.84;100.00
3122;BME280;1571;52.524;14.104;2023-06-22T00:55:37;101383.81;;;17.84;100.00
3122;BME280;1571;52.524;14.104;2023-06-22T00:58:06;101380.69;;;17.67;100.00
3122;BME280;1571;52.524;14.104;2023-06-22T01:00:38;101387.75;;;17.68;100.00
3122;BME280;1571;52.524;14.104;2023-06-22T01:03:06;101386.97;;;17.78;100.00
3122;BME280;1571;52.524;14.104;2023-06-22T01:05:39;101390.69;;;17.65;100.00
3122;BME280;1571;52.524;14.104;2023-06-22T01:08:22;101383.72;;;17.63;100.00
3122;BME280;1571;52.524;14.104;2023-06-22T01:10:53;101386.31;;;17.53;100.00
3122;BME280;1571;52.524;14.104;2023-06-22T01:13:28;101374.38;;;17.46;100.00
3122;BME280;1571;52.524;14.104;2023-06-22T01:16:02;101369.25;;;17.43;100.00
3122;BME280;1571;52.524;14.104;2023-06-22T01:18:33;101375.47;;;17.43;100.00
3122;BME280;1571;52.524;14.104;2023-06-22T01:21:06;101380.94;;;17.53;100.00
3122;BME280;1571;52.524;14.104;2023-06-22T01:23:47;101386.91;;;17.57;100.00
3122;BME280;1571;52.524;14.104;2023-06-22T01:26:22;101398.63;;;17.56;100.00
3122;BME280;1571;52.524;14.104;2023-06-22T01:28:58;101401.13;;;17.36;100.00
3122;BME280;1571;52.524;14.104;2023-06-22T01:31:28;101410.34;;;17.55;100.00
3122;BME280;1571;52.524;14.104;2023-06-22T01:33:59;101411.91;;;17.68;100.00
3122;BME280;1571;52.524;14.104;2023-06-22T01:36:29;101409.34;;;17.67;100.00
3122;BME280;1571;52.524;14.104;2023-06-22T01:38:58;101415.84;;;17.53;100.00
3122;BME280;1571;52.524;14.104;2023-06-22T01:41:28;101416.94;;;17.51;100.00
3122;BME280;1571;52.524;14.104;2023-06-22T01:43:59;101411.94;;;17.46;100.00
3122;BME280;1571;52.524;14.104;2023-06-22T01:46:29;101424.66;;;17.33;100.00
3122;BME280;1571;52.524;14.104;2023-06-22T01:48:57;101416.59;;;17.44;100.00
3122;BME280;1571;52.524;14.104;2023-06-22T01:51:26;101413.81;;;17.34;100.00
3122;BME280;1571;52.524;14.104;2023-06-22T01:53:54;101410.97;;;17.24;100.00
3122;BME280;1571;52.524;14.104;2023-06-22T01:56:23;101408.06;;;17.27;100.00
3122;BME280;1571;52.524;14.104;2023-06-22T01:58:57;101417.06;;;17.26;100.00
3122;BME280;1571;52.524;14.104;2023-06-22T02:01:31;101420.75;;;17.25;100.00
3122;BME280;1571;52.524;14.104;2023-06-22T02:04:03;101421.97;;;17.21;100.00
3122;BME280;1571;52.524;14.104;2023-06-22T02:06:37;101423.56;;;17.24;100.00
3122;BME280;1571;52.524;14.104;2023-06-22T02:09:12;101418.66;;;17.18;100.00
3122;BME280;1571;52.524;14.104;2023-06-22T02:11:44;101430.75;;;17.12;100.00
3122;BME280;1571;52.524;14.104;2023-06-22T02:14:14;101433.53;;;17.11;100.00
3122;BME280;1571;52.524;14.104;2023-06-22T02:16:47;101441.72;;;17.09;100.00
3122;BME280;1571;52.524;14.104;2023-06-22T02:19:15;101442.69;;;17.19;100.00
3122;BME280;1571;52.524;14.104;2023-06-22T02:21:45;101433.53;;;17.11;100.00
3122;BME280;1571;52.524;14.104;2023-06-22T02:24:14;101441.84;;;16.96;100.00
3122;BME280;1571;52.524;14.104;2023-06-22T02:26:42;101432.94;;;17.07;100.00
3122;BME280;1571;52.524;14.104;2023-06-22T02:29:12;101431.22;;;17.06;100.00
3122;BME280;1571;52.524;14.104;2023-06-22T02:31:42;101437.19;;;16.87;100.00
3122;BME280;1571;52.524;14.104;2023-06-22T02:34:13;101432.31;;;17.03;100.00
3122;BME280;1571;52.524;14.104;2023-06-22T02:36:45;101437.94;;;17.00;100.00
3122;BME280;1571;52.524;14.104;2023-06-22T02:39:19;101433.44;;;17.01;100.00
3122;BME280;1571;52.524;14.104;2023-06-22T02:41:49;101440.97;;;16.84;100.00
3122;BME280;1571;52.524;14.104;2023-06-22T02:44:19;101444.88;;;16.92;100.00
3122;BME280;1571;52.524;14.104;2023-06-22T02:46:48;101435.47;;;16.97;100.00
3122;BME280;1571;52.524;14.104;2023-06-22T02:49:18;101444.88;;;16.92;100.00
3122;BME280;1571;52.524;14.104;2023-06-22T02:51:47;101438.53;;;16.93;100.00
3122;BME280;1571;52.524;14.104;2023-06-22T02:54:19;101446.94;;;16.88;100.00
3122;BME280;1571;52.524;14.104;2023-06-22T02:56:50;101457.56;;;16.65;100.00
3122;BME280;1571;52.524;14.104;2023-06-22T02:59:20;101460.09;;;16.80;100.00
3122;BME280;1571;52.524;14.104;2023-06-22T03:01:53;101458.03;;;16.59;100.00
3122;BME280;1571;52.524;14.104;2023-06-22T03:04:27;101469.19;;;16.77;100.00
3122;BME280;1571;52.524;14.104;2023-06-22T03:06:56;101478.66;;;16.70;100.00
3122;BME280;1571;52.524;14.104;2023-06-22T03:09:29;101480.69;;;16.91;100.00
3122;BME280;1571;52.524;14.104;2023-06-22T03:11:58;101479.75;;;17.03;100.00
3122;BME280;1571;52.524;14.104;2023-06-22T03:14:34;101477.56;;;17.08;100.00
3122;BME280;1571;52.524;14.104;2023-06-22T03:17:04;101469.78;;;17.16;100.00
3122;BME280;1571;52.524;14.104;2023-06-22T03:19:34;101462.56;;;17.17;100.00
3122;BME280;1571;52.524;14.104;2023-06-22T03:22:03;101466.38;;;17.37;100.00
3122;BME280;1571;52.524;14.104;2023-06-22T03:24:31;101462.09;;;17.34;100.00
3122;BME280;1571;52.524;14.104;2023-06-22T03:27:01;101472.84;;;17.45;100.00
3122;BME280;1571;52.524;14.104;2023-06-22T03:29:33;101463.91;;;17.45;100.00
3122;BME280;1571;52.524;14.104;2023-06-22T03:32:02;101464.53;;;17.48;100.00
3122;BME280;1571;52.524;14.104;2023-06-22T03:34:32;101457.47;;;17.47;100.00
3122;BME280;1571;52.524;14.104;2023-06-22T03:37:03;101458.91;;;17.52;100.00
3122;BME280;1571;52.524;14.104;2023-06-22T03:39:31;101456.91;;;17.76;100.00
3122;BME280;1571;52.524;14.104;2023-06-22T03:42:00;101449.59;;;17.78;100.00
3122;BME280;1571;52.524;14.104;2023-06-22T03:44:28;101457.78;;;17.99;100.00
3122;BME280;1571;52.524;14.104;2023-06-22T03:46:58;101445.69;;;17.94;100.00
3122;BME280;1571;52.524;14.104;2023-06-22T03:49:26;101445.31;;;17.98;100.00
3122;BME280;1571;52.524;14.104;2023-06-22T03:51:54;101451.63;;;18.08;100.00
3122;BME280;1571;52.524;14.104;2023-06-22T03:54:24;101449.41;;;18.14;100.00
3122;BME280;1571;52.524;14.104;2023-06-22T03:56:52;101451.00;;;18.37;100.00
3122;BME280;1571;52.524;14.104;2023-06-22T03:59:20;101432.53;;;18.44;100.00
3122;BME280;1571;52.524;14.104;2023-06-22T04:01:49;101434.59;;;18.51;100.00
3122;BME280;1571;52.524;14.104;2023-06-22T04:04:17;101437.84;;;18.34;100.00
3122;BME280;1571;52.524;14.104;2023-06-22T04:06:46;101444.56;;;18.40;100.00
3122;BME280;1571;52.524;14.104;2023-06-22T04:09:14;101437.91;;;18.44;100.00
3122;BME280;1571;52.524;14.104;2023-06-22T04:11:44;101437.84;;;18.55;100.00
3122;BME280;1571;52.524;14.104;2023-06-22T04:14:12;101435.94;;;18.78;100.00
3122;BME280;1571;52.524;14.104;2023-06-22T04:16:41;101428.34;;;18.72;100.00
3122;BME280;1571;52.524;14.104;2023-06-22T04:19:09;101437.09;;;18.64;100.00
3122;BME280;1571;52.524;14.104;2023-06-22T04:21:43;101427.09;;;18.97;100.00
3122;BME280;1571;52.524;14.104;2023-06-22T04:24:11;101427.06;;;18.87;100.00
3122;BME280;1571;52.524;14.104;2023-06-22T04:26:40;101424.59;;;19.05;100.00
3122;BME280;1571;52.524;14.104;2023-06-22T04:29:10;101425.88;;;19.42;100.00
3122;BME280;1571;52.524;14.104;2023-06-22T04:31:39;101419.06;;;19.38;100.00
3122;BME280;1571;52.524;14.104;2023-06-22T04:34:08;101413.16;;;19.63;100.00
3122;BME280;1571;52.524;14.104;2023-06-22T04:36:38;101412.53;;;19.40;100.00
3122;BME280;1571;52.524;14.104;2023-06-22T04:39:07;101405.25;;;19.62;100.00
3122;BME280;1571;52.524;14.104;2023-06-22T04:41:37;101409.53;;;19.74;100.00
3122;BME280;1571;52.524;14.104;2023-06-22T04:44:11;101422.19;;;19.93;100.00
3122;BME280;1571;52.524;14.104;2023-06-22T04:46:40;101417.63;;;19.74;100.00
3122;BME280;1571;52.524;14.104;2023-06-22T04:49:09;101418.50;;;19.84;100.00
3122;BME280;1571;52.524;14.104;2023-06-22T04:51:39;101423.47;;;19.89;100.00
3122;BME280;1571;52.524;14.104;2023-06-22T04:54:09;101425.19;;;20.09;100.00
3122;BME280;1571;52.524;14.104;2023-06-22T04:56:37;101422.91;;;20.14;100.00
3122;BME280;1571;52.524;14.104;2023-06-22T04:59:08;101430.03;;;20.15;100.00
3122;BME280;1571;52.524;14.104;2023-06-22T05:01:41;101426.91;;;20.20;100.00
3122;BME280;1571;52.524;14.104;2023-06-22T05:04:10;101428.59;;;20.41;100.00
3122;BME280;1571;52.524;14.104;2023-06-22T05:06:38;101427.72;;;20.50;99.93
3122;BME280;1571;52.524;14.104;2023-06-22T05:09:07;101432.69;;;20.74;98.34
3122;BME280;1571;52.524;14.104;2023-06-22T05:11:35;101436.22;;;20.74;97.31
3122;BME280;1571;52.524;14.104;2023-06-22T05:14:04;101431.06;;;20.91;94.69
3122;BME280;1571;52.524;14.104;2023-06-22T05:16:32;101431.81;;;20.83;94.71
3122;BME280;1571;52.524;14.104;2023-06-22T05:19:02;101431.13;;;20.81;92.12
3122;BME280;1571;52.524;14.104;2023-06-22T05:21:31;101429.03;;;21.12;93.10
3122;BME280;1571;52.524;14.104;2023-06-22T05:24:00;101436.78;;;20.88;92.14
3122;BME280;1571;52.524;14.104;2023-06-22T05:26:30;101438.41;;;21.08;90.48
3122;BME280;1571;52.524;14.104;2023-06-22T05:28:59;101445.22;;;21.12;89.81
3122;BME280;1571;52.524;14.104;2023-06-22T05:31:28;101432.91;;;21.37;89.02
3122;BME280;1571;52.524;14.104;2023-06-22T05:33:56;101430.72;;;21.51;88.15
3122;BME280;1571;52.524;14.104;2023-06-22T05:36:26;101435.19;;;21.32;88.17
3122;BME280;1571;52.524;14.104;2023-06-22T05:38:56;101436.03;;;21.42;88.60
3122;BME280;1571;52.524;14.104;2023-06-22T05:41:24;101433.28;;;21.70;87.37
3122;BME280;1571;52.524;14.104;2023-06-22T05:43:53;101447.25;;;21.66;86.90
3122;BME280;1571;52.524;14.104;2023-06-22T05:46:21;101454.22;;;21.68;87.49
3122;BME280;1571;52.524;14.104;2023-06-22T05:48:49;101447.72;;;21.61;87.88
3122;BME280;1571;52.524;14.104;2023-06-22T05:51:17;101465.47;;;21.91;86.68
3122;BME280;1571;52.524;14.104;2023-06-22T05:53:47;101463.69;;;21.82;86.58
3122;BME280;1571;52.524;14.104;2023-06-22T05:56:17;101470.75;;;21.65;86.19
3122;BME280;1571;52.524;14.104;2023-06-22T05:58:45;101478.91;;;22.01;85.28
3122;BME280;1571;52.524;14.104;2023-06-22T06:01:14;101483.66;;;21.71;86.83
3122;BME280;1571;52.524;14.104;2023-06-22T06:03:43;101484.78;;;21.96;86.88
3122;BME280;1571;52.524;14.104;2023-06-22T06:06:11;101478.00;;;22.10;84.63
3122;BME280;1571;52.524;14.104;2023-06-22T06:08:40;101476.63;;;22.42;84.94
3122;BME280;1571;52.524;14.104;2023-06-22T06:11:10;101486.53;;;22.51;84.11
3122;BME280;1571;52.524;14.104;2023-06-22T06:13:38;101498.41;;;22.58;81.88
3122;BME280;1571;52.524;14.104;2023-06-22T06:16:07;101495.66;;;22.50;80.29
3122;BME280;1571;52.524;14.104;2023-06-22T06:18:35;101491.09;;;22.51;81.10
3122;BME280;1571;52.524;14.104;2023-06-22T06:21:04;101481.59;;;22.29;77.21
3122;BME280;1571;52.524;14.104;2023-06-22T06:23:32;101482.38;;;22.39;75.19
3122;BME280;1571;52.524;14.104;2023-06-22T06:26:00;101481.44;;;22.48;74.00
3122;BME280;1571;52.524;14.104;2023-06-22T06:28:30;101490.59;;;22.73;74.43
3122;BME280;1571;52.524;14.104;2023-06-22T06:30:58;101485.09;;;22.65;72.41
3122;BME280;1571;52.524;14.104;2023-06-22T06:33:27;101476.84;;;22.66;70.30
3122;BME280;1571;52.524;14.104;2023-06-22T06:35:55;101482.94;;;22.69;70.56
3122;BME280;1571;52.524;14.104;2023-06-22T06:38:23;101488.81;;;22.82;70.77
3122;BME280;1571;52.524;14.104;2023-06-22T06:40:52;101473.59;;;23.07;70.06
3122;BME280;1571;52.524;14.104;2023-06-22T06:43:20;101471.59;;;23.43;69.65
3122;BME280;1571;52.524;14.104;2023-06-22T06:45:49;101482.72;;;23.32;68.61
3122;BME280;1571;52.524;14.104;2023-06-22T06:48:18;101486.72;;;23.20;68.77
3122;BME280;1571;52.524;14.104;2023-06-22T06:50:47;101481.78;;;23.49;67.87
3122;BME280;1571;52.524;14.104;2023-06-22T06:53:15;101482.00;;;23.56;67.26
3122;BME280;1571;52.524;14.104;2023-06-22T06:55:43;101482.53;;;23.60;67.68
3122;BME280;1571;52.524;14.104;2023-06-22T06:58:12;101492.28;;;23.44;66.67
3122;BME280;1571;52.524;14.104;2023-06-22T07:00:42;101482.16;;;23.55;67.34
3122;BME280;1571;52.524;14.104;2023-06-22T07:03:11;101481.84;;;23.66;66.96
3122;BME280;1571;52.524;14.104;2023-06-22T07:05:40;101470.63;;;23.53;66.02
3122;BME280;1571;52.524;14.104;2023-06-22T07:08:08;101468.72;;;23.79;65.20
3122;BME280;1571;52.524;14.104;2023-06-22T07:10:36;101473.56;;;23.67;63.97
3122;BME280;1571;52.524;14.104;2023-06-22T07:13:04;101468.00;;;23.69;63.78
3122;BME280;1571;52.524;14.104;2023-06-22T07:15:33;101472.75;;;23.75;62.57
3122;BME280;1571;52.524;14.104;2023-06-22T07:18:01;101471.47;;;23.96;62.88
3122;BME280;1571;52.524;14.104;2023-06-22T07:20:30;101466.41;;;24.01;62.17
3122;BME280;1571;52.524;14.104;2023-06-22T07:22:59;101466.94;;;24.13;61.91
3122;BME280;1571;52.524;14.104;2023-06-22T07:25:27;101469.81;;;24.11;61.05
3122;BME280;1571;52.524;14.104;2023-06-22T07:27:58;101478.06;;;23.51;61.42
3122;BME280;1571;52.524;14.104;2023-06-22T07:30:26;101483.69;;;24.00;61.27
3122;BME280;1571;52.524;14.104;2023-06-22T07:32:56;101473.56;;;24.35;60.59
3122;BME280;1571;52.524;14.104;2023-06-22T07:35:25;101473.63;;;24.51;59.52
3122;BME280;1571;52.524;14.104;2023-06-22T07:37:54;101465.06;;;24.29;58.31
3122;BME280;1571;52.524;14.104;2023-06-22T07:40:22;101460.00;;;24.43;57.66
3122;BME280;1571;52.524;14.104;2023-06-22T07:42:51;101453.56;;;24.77;57.34
3122;BME280;1571;52.524;14.104;2023-06-22T07:45:20;101445.78;;;24.65;56.27
3122;BME280;1571;52.524;14.104;2023-06-22T07:47:49;101438.31;;;24.35;56.62
3122;BME280;1571;52.524;14.104;2023-06-22T07:50:17;101442.53;;;24.70;57.07
3122;BME280;1571;52.524;14.104;2023-06-22T07:52:46;101443.91;;;24.74;55.34
3122;BME280;1571;52.524;14.104;2023-06-22T07:55:16;101441.22;;;24.66;55.04
3122;BME280;1571;52.524;14.104;2023-06-22T07:57:46;101438.31;;;24.67;54.79
3122;BME280;1571;52.524;14.104;2023-06-22T08:00:15;101450.19;;;24.75;56.22
3122;BME280;1571;52.524;14.104;2023-06-22T08:02:45;101444.56;;;24.84;56.51
3122;BME280;1571;52.524;14.104;2023-06-22T08:05:14;101450.28;;;25.14;57.20
3122;BME280;1571;52.524;14.104;2023-06-22T08:07:49;101443.88;;;25.46;57.07
3122;BME280;1571;52.524;14.104;2023-06-22T08:10:19;101450.47;;;25.04;57.08
3122;BME280;1571;52.524;14.104;2023-06-22T08:12:47;101443.00;;;24.98;52.85
3122;BME280;1571;52.524;14.104;2023-06-22T08:15:15;101444.00;;;25.13;53.43
3122;BME280;1571;52.524;14.104;2023-06-22T08:17:44;101419.53;;;25.22;52.20
3122;BME280;1571;52.524;14.104;2023-06-22T08:20:12;101419.31;;;24.76;53.11
3122;BME280;1571;52.524;14.104;2023-06-22T08:22:41;101424.09;;;25.29;52.47
3122;BME280;1571;52.524;14.104;2023-06-22T08:25:10;101419.47;;;24.74;52.54
3122;BME280;1571;52.524;14.104;2023-06-22T08:27:44;101424.16;;;24.97;53.77
3122;BME280;1571;52.524;14.104;2023-06-22T08:30:13;101423.22;;;25.37;52.57
3122;BME280;1571;52.524;14.104;2023-06-22T08:32:42;101423.03;;;25.47;53.35
3122;BME280;1571;52.524;14.104;2023-06-22T08:35:10;101413.00;;;25.39;51.40
3122;BME280;1571;52.524;14.104;2023-06-22T08:37:38;101423.09;;;25.14;51.68
3122;BME280;1571;52.524;14.104;2023-06-22T08:40:08;101416.16;;;25.20;50.05
3122;BME280;1571;52.524;14.104;2023-06-22T08:42:40;101430.69;;;25.35;52.38
3122;BME280;1571;52.524;14.104;2023-06-22T08:45:10;101434.59;;;25.41;51.88
3122;BME280;1571;52.524;14.104;2023-06-22T08:47:39;101434.09;;;25.37;50.94
3122;BME280;1571;52.524;14.104;2023-06-22T08:50:09;101433.66;;;25.57;50.94
3122;BME280;1571;52.524;14.104;2023-06-22T08:52:39;101440.91;;;25.17;51.08
3122;BME280;1571;52.524;14.104;2023-06-22T08:55:09;101435.44;;;25.41;52.04
3122;BME280;1571;52.524;14.104;2023-06-22T08:57:38;101429.03;;;25.26;50.76
3122;BME280;1571;52.524;14.104;2023-06-22T09:00:08;101422.50;;;25.43;51.39
3122;BME280;1571;52.524;14.104;2023-06-22T09:02:45;101408.13;;;25.66;50.31
3122;BME280;1571;52.524;14.104;2023-06-22T09:05:14;101410.00;;;25.65;50.46
3122;BME280;1571;52.524;14.104;2023-06-22T09:07:43;101417.84;;;25.91;51.12
3122;BME280;1571;52.524;14.104;2023-06-22T09:10:11;101416.78;;;25.69;50.99
3122;BME280;1571;52.524;14.104;2023-06-22T09:12:39;101413.53;;;25.74;50.56
3122;BME280;1571;52.524;14.104;2023-06-22T09:15:08;101420.56;;;25.60;51.33
3122;BME280;1571;52.524;14.104;2023-06-22T09:17:54;101412.22;;;26.16;51.24
3122;BME280;1571;52.524;14.104;2023-06-22T09:20:24;101410.06;;;26.34;51.09
3122;BME280;1571;52.524;14.104;2023-06-22T09:22:52;101411.00;;;26.42;51.39
3122;BME280;1571;52.524;14.104;2023-06-22T09:25:20;101406.28;;;26.58;50.51
3122;BME280;1571;52.524;14.104;2023-06-22T09:27:49;101389.03;;;26.96;48.32
3122;BME280;1571;52.524;14.104;2023-06-22T09:30:17;101382.72;;;27.40;48.92
3122;BME280;1571;52.524;14.104;2023-06-22T09:32:45;101381.88;;;26.95;47.74
3122;BME280;1571;52.524;14.104;2023-06-22T09:35:15;101379.56;;;26.39;48.27
3122;BME280;1571;52.524;14.104;2023-06-22T09:37:43;101363.66;;;27.25;46.85
3122;BME280;1571;52.524;14.104;2023-06-22T09:40:12;101361.84;;;27.17;46.23
3122;BME280;1571;52.524;14.104;2023-06-22T09:42:42;101373.91;;;26.93;46.90
3122;BME280;1571;52.524;14.104;2023-06-22T09:45:11;101372.91;;;26.42;46.53
3122;BME280;1571;52.524;14.104;2023-06-22T09:47:39;101372.91;;;26.42;47.08
3122;BME280;1571;52.524;14.104;2023-06-22T09:50:09;101369.41;;;26.48;47.86
3122;BME280;1571;52.524;14.104;2023-06-22T09:52:39;101373.72;;;26.95;46.90
3122;BME280;1571;52.524;14.104;2023-06-22T09:55:14;101371.25;;;27.15;47.56
3122;BME280;1571;52.524;14.104;2023-06-22T09:57:44;101377.47;;;27.24;46.42
3122;BME280;1571;52.524;14.104;2023-06-22T10:00:13;101381.63;;;27.56;47.48
3122;BME280;1571;52.524;14.104;2023-06-22T10:02:42;101379.88;;;27.48;47.40
3122;BME280;1571;52.524;14.104;2023-06-22T10:05:11;101360.84;;;27.91;45.87
3122;BME280;1571;52.524;14.104;2023-06-22T10:07:41;101371.38;;;28.16;48.45
3122;BME280;1571;52.524;14.104;2023-06-22T10:10:12;101364.53;;;28.27;46.45
3122;BME280;1571;52.524;14.104;2023-06-22T10:12:42;101365.94;;;28.44;46.12
3122;BME280;1571;52.524;14.104;2023-06-22T10:15:11;101360.78;;;28.91;45.49
3122;BME280;1571;52.524;14.104;2023-06-22T10:17:40;101349.44;;;29.29;43.06
3122;BME280;1571;52.524;14.104;2023-06-22T10:20:09;101349.34;;;29.09;44.10
3122;BME280;1571;52.524;14.104;2023-06-22T10:22:39;101357.03;;;28.35;44.65
3122;BME280;1571;52.524;14.104;2023-06-22T10:25:10;101364.16;;;28.08;44.81
3122;BME280;1571;52.524;14.104;2023-06-22T10:27:39;101366.06;;;27.86;45.85
3122;BME280;1571;52.524;14.104;2023-06-22T10:30:09;101377.06;;;27.56;48.52
3122;BME280;1571;52.524;14.104;2023-06-22T10:32:41;101373.34;;;27.64;46.88
3122;BME280;1571;52.524;14.104;2023-06-22T10:35:10;101368.72;;;27.43;46.16
3122;BME280;1571;52.524;14.104;2023-06-22T10:37:42;101366.84;;;27.14;46.14
3122;BME280;1571;52.524;14.104;2023-06-22T10:40:13;101366.44;;;27.47;48.07
3122;BME280;1571;52.524;14.104;2023-06-22T10:42:42;101365.81;;;27.66;45.33
3122;BME280;1571;52.524;14.104;2023-06-22T10:45:11;101366.94;;;27.35;44.83
3122;BME280;1571;52.524;14.104;2023-06-22T10:47:41;101362.91;;;27.68;46.29
3122;BME280;1571;52.524;14.104;2023-06-22T10:50:10;101354.38;;;27.92;47.24
3122;BME280;1571;52.524;14.104;2023-06-22T10:52:39;101348.22;;;28.12;45.49
3122;BME280;1571;52.524;14.104;2023-06-22T10:55:09;101336.50;;;28.68;44.15
3122;BME280;1571;52.524;14.104;2023-06-22T10:57:39;101330.19;;;28.67;44.35
3122;BME280;1571;52.524;14.104;2023-06-22T11:00:11;101337.03;;;28.28;44.41
3122;BME280;1571;52.524;14.104;2023-06-22T11:02:40;101338.13;;;28.06;45.12
3122;BME280;1571;52.524;14.104;2023-06-22T11:05:09;101325.94;;;28.58;44.36
3122;BME280;1571;52.524;14.104;2023-06-22T11:07:37;101318.56;;;28.02;44.57
3122;BME280;1571;52.524;14.104;2023-06-22T11:10:12;101311.75;;;27.70;43.58
3122;BME280;1571;52.524;14.104;2023-06-22T11:12:41;101320.59;;;27.78;45.90
3122;BME280;1571;52.524;14.104;2023-06-22T11:15:10;101316.19;;;27.56;45.52
3122;BME280;1571;52.524;14.104;2023-06-22T11:17:38;101312.56;;;27.49;45.80
3122;BME280;1571;52.524;14.104;2023-06-22T11:20:07;101306.31;;;27.18;45.57
3122;BME280;1571;52.524;14.104;2023-06-22T11:22:38;101311.47;;;27.43;46.50
3122;BME280;1571;52.524;14.104;2023-06-22T11:25:07;101304.19;;;27.72;46.17
3122;BME280;1571;52.524;14.104;2023-06-22T11:27:36;101296.66;;;27.74;45.27
3122;BME280;1571;52.524;14.104;2023-06-22T11:30:07;101298.94;;;27.92;46.27
3122;BME280;1571;52.524;14.104;2023-06-22T11:32:36;101286.63;;;28.24;46.04
3122;BME280;1571;52.524;14.104;2023-06-22T11:35:05;101284.22;;;28.42;44.86
3122;BME280;1571;52.524;14.104;2023-06-22T11:37:33;101280.97;;;28.32;45.10
3122;BME280;1571;52.524;14.104;2023-06-22T11:40:01;101283.63;;;27.48;44.97
3122;BME280;1571;52.524;14.104;2023-06-22T11:42:33;101284.78;;;27.81;46.63
3122;BME280;1571;52.524;14.104;2023-06-22T11:45:04;101284.47;;;27.91;44.94
3122;BME280;1571;52.524;14.104;2023-06-22T11:47:34;101284.06;;;27.94;46.06
3122;BME280;1571;52.524;14.104;2023-06-22T11:50:04;101289.38;;;28.02;45.38
3122;BME280;1571;52.524;14.104;2023-06-22T11:52:33;101289.63;;;28.36;45.60
3122;BME280;1571;52.524;14.104;2023-06-22T11:55:03;101294.19;;;28.57;45.57
3122;BME280;1571;52.524;14.104;2023-06-22T11:57:33;101278.09;;;28.75;44.78
3122;BME280;1571;52.524;14.104;2023-06-22T12:00:03;101285.88;;;28.43;45.56
3122;BME280;1571;52.524;14.104;2023-06-22T12:02:44;101287.91;;;28.28;45.63
3122;BME280;1571;52.524;14.104;2023-06-22T12:05:13;101287.03;;;28.28;46.06
3122;BME280;1571;52.524;14.104;2023-06-22T12:07:41;101288.25;;;27.90;45.72
3122;BME280;1571;52.524;14.104;2023-06-22T12:10:10;101281.94;;;28.18;45.55
3122;BME280;1571;52.524;14.104;2023-06-22T12:12:38;101273.66;;;27.83;45.36
3122;BME280;1571;52.524;14.104;2023-06-22T12:15:07;101274.44;;;28.55;45.15
3122;BME280;1571;52.524;14.104;2023-06-22T12:17:35;101276.53;;;28.24;45.28
3122;BME280;1571;52.524;14.104;2023-06-22T12:20:06;101279.00;;;27.70;45.10
3122;BME280;1571;52.524;14.104;2023-06-22T12:22:35;101282.88;;;27.82;46.77
3122;BME280;1571;52.524;14.104;2023-06-22T12:25:05;101275.59;;;28.11;46.38
3122;BME280;1571;52.524;14.104;2023-06-22T12:27:34;101267.16;;;28.06;45.95
3122;BME280;1571;52.524;14.104;2023-06-22T12:30:04;101269.44;;;27.80;45.19
3122;BME280;1571;52.524;14.104;2023-06-22T12:32:33;101260.66;;;28.41;45.53
3122;BME280;1571;52.524;14.104;2023-06-22T12:35:01;101261.84;;;27.76;45.19
3122;BME280;1571;52.524;14.104;2023-06-22T12:37:31;101264.94;;;27.94;46.04
3122;BME280;1571;52.524;14.104;2023-06-22T12:40:00;101257.22;;;28.26;44.66
3122;BME280;1571;52.524;14.104;2023-06-22T12:42:30;101257.50;;;28.73;45.77
3122;BME280;1571;52.524;14.104;2023-06-22T12:44:59;101249.84;;;28.96;44.48
3122;BME280;1571;52.524;14.104;2023-06-22T12:47:27;101246.97;;;28.63;44.98
3122;BME280;1571;52.524;14.104;2023-06-22T12:49:55;101249.03;;;28.26;46.31
3122;BME280;1571;52.524;14.104;2023-06-22T12:52:24;101250.88;;;28.19;45.37
3122;BME280;1571;52.524;14.104;2023-06-22T12:54:53;101241.72;;;28.33;45.17
3122;BME280;1571;52.524;14.104;2023-06-22T12:57:22;101244.84;;;27.95;45.55
3122;BME280;1571;52.524;14.104;2023-06-22T12:59:50;101244.25;;;26.99;46.14
3122;BME280;1571;52.524;14.104;2023-06-22T13:02:19;101234.72;;;27.46;46.09
3122;BME280;1571;52.524;14.104;2023-06-22T13:04:47;101229.44;;;28.16;45.87
3122;BME280;1571;52.524;14.104;2023-06-22T13:07:15;101228.53;;;28.43;45.54